»·PEaware :: SKW1187 KPHX-KLAS

SKW1187 :: KPHX-KLAS

FLIGHT INFORMATION

Flight Status: Arrived
Operator:
SkyWest Airlines
More flights by this operator :: More flights under this callsign
Pilot: Anonymous 12254 (12254)
Aircraft: CANADAIR CL-600 CRJ-200
(CRJ2)
More flights by this aircraft type
Origin: KPHX Phoenix Sky Harbor Intl
United States
Destination: KLAS McCarran Intl
United States
More flights between these airports :: More routes between these airports
Route: +ZEPER1 SISIE IGM TYSSN5
File this flight plan on PilotEdge
Remarks:
Altitude:
(Current/Filed)
26,000ft
Speed:
(Current/Filed)
420kts
Departed: 14-Jul-19 03:32 PM
Arrived: 14-Jul-19 04:20 PM
Distance/Time
Traveled:
222nm/0:48
Distance/Time
To Go:
Arrived

Flight Plot

Page will automatically refresh every two minutes.

Flight plan parsing failed; only flown route is shown


Map Options




Map Legend


Flown Route
Filed Route
Departure Airport
Arrival Airport
Navaid (VOR, NDB)
Fix

Horizontal Profiles

Position Reports

Time Latitude Longitude Heading Altitude Ground
Speed
14-Jul-19 15:05 33.437344 -112.009368 106 1124ft 0kts
14-Jul-19 15:06 33.437344 -112.009368 106 1124ft 0kts
14-Jul-19 15:07 33.437344 -112.009368 106 1124ft 0kts
14-Jul-19 15:08 33.437344 -112.009368 106 1124ft 0kts
14-Jul-19 15:09 33.437344 -112.009368 106 1124ft 0kts
14-Jul-19 15:10 33.437344 -112.009368 106 1124ft 0kts
14-Jul-19 15:11 33.437344 -112.009368 106 1124ft 0kts
14-Jul-19 15:12 33.437344 -112.009368 106 1124ft 0kts
14-Jul-19 15:13 33.437344 -112.009368 106 1124ft 0kts
14-Jul-19 15:14 33.437344 -112.009368 106 1124ft 0kts
14-Jul-19 15:15 33.437344 -112.009368 106 1124ft 0kts
14-Jul-19 15:16 33.437344 -112.009368 106 1124ft 0kts
14-Jul-19 15:17 33.437344 -112.009368 106 1124ft 0kts
14-Jul-19 15:18 33.437344 -112.009368 106 1124ft 0kts
14-Jul-19 15:19 33.437344 -112.009368 106 1124ft 0kts
14-Jul-19 15:20 33.437344 -112.009368 106 1124ft 0kts
14-Jul-19 15:21 33.437344 -112.009368 106 1124ft 0kts
14-Jul-19 15:22 33.437444 -112.009787 105 1124ft 5kts
14-Jul-19 15:23 33.438195 -112.010108 0 1124ft 1kts
14-Jul-19 15:24 33.438248 -112.010107 0 1124ft 0kts
14-Jul-19 15:25 33.438248 -112.010107 0 1124ft 0kts
14-Jul-19 15:26 33.438311 -112.010107 0 1124ft 2kts
14-Jul-19 15:27 33.439023 -112.008599 90 1125ft 9kts
14-Jul-19 15:28 33.439029 -112.004752 89 1127ft 15kts
14-Jul-19 15:29 33.439030 -111.998336 90 1130ft 22kts
14-Jul-19 15:30 33.439694 -111.992297 0 1133ft 5kts
14-Jul-19 15:31 33.440844 -112.002315 269 1129ft 136kts
14-Jul-19 15:32 33.441554 -112.066810 271 2866ft 220kts
14-Jul-19 15:33 33.443668 -112.145197 272 5300ft 247kts
14-Jul-19 15:34 33.487773 -112.193714 356 6496ft 252kts
14-Jul-19 15:35 33.558187 -112.198304 355 7740ft 258kts
14-Jul-19 15:36 33.635140 -112.208280 345 10102ft 289kts
14-Jul-19 15:37 33.713998 -112.232917 345 12730ft 300kts
14-Jul-19 15:38 33.795935 -112.259306 345 15146ft 311kts
14-Jul-19 15:39 33.880678 -112.286700 345 17363ft 322kts
14-Jul-19 15:40 33.968658 -112.315204 345 19415ft 332kts
14-Jul-19 15:41 34.052772 -112.360454 321 21279ft 342kts
14-Jul-19 15:42 34.127251 -112.434479 320 23023ft 352kts
14-Jul-19 15:43 34.203588 -112.511328 320 24644ft 361kts
14-Jul-19 15:44 34.281364 -112.589854 320 26081ft 371kts
14-Jul-19 15:45 34.364783 -112.674297 319 26116ft 409kts
14-Jul-19 15:46 34.454549 -112.765419 319 26111ft 428kts
14-Jul-19 15:47 34.546511 -112.859052 319 26110ft 434kts
14-Jul-19 15:48 34.637233 -112.956516 318 26109ft 438kts
14-Jul-19 15:49 34.727635 -113.055299 318 26109ft 438kts
14-Jul-19 15:50 34.818136 -113.154566 318 26109ft 438kts
14-Jul-19 15:51 34.908758 -113.254214 318 26109ft 438kts
14-Jul-19 15:52 34.994233 -113.359537 300 26117ft 438kts
14-Jul-19 15:53 35.053558 -113.485808 299 25381ft 419kts
14-Jul-19 15:54 35.110167 -113.607818 299 23770ft 407kts
14-Jul-19 15:55 35.165240 -113.726955 299 22161ft 397kts
14-Jul-19 15:56 35.218911 -113.843457 299 20558ft 390kts
14-Jul-19 15:57 35.277954 -113.948916 321 19716ft 364kts
14-Jul-19 15:58 35.355753 -114.022431 322 19077ft 341kts
14-Jul-19 15:59 35.428816 -114.090532 322 18432ft 327kts
14-Jul-19 16:00 35.501135 -114.157887 323 17412ft 326kts
14-Jul-19 16:01 35.572473 -114.224411 323 15801ft 315kts
14-Jul-19 16:02 35.640841 -114.288303 323 14196ft 304kts
14-Jul-19 16:03 35.707555 -114.350790 323 12584ft 297kts
14-Jul-19 16:04 35.775307 -114.398263 338 12045ft 263kts
14-Jul-19 16:05 35.841369 -114.429667 339 11457ft 250kts
14-Jul-19 16:06 35.905237 -114.459603 339 10844ft 241kts
14-Jul-19 16:07 35.968044 -114.489040 339 10243ft 241kts
14-Jul-19 16:08 36.028759 -114.520279 315 10045ft 227kts
14-Jul-19 16:09 36.046070 -114.594756 281 8889ft 232kts
14-Jul-19 16:10 36.067869 -114.670807 291 7401ft 236kts
14-Jul-19 16:11 36.090529 -114.742727 291 6570ft 214kts
14-Jul-19 16:12 36.111892 -114.810421 291 5561ft 208kts
14-Jul-19 16:13 36.132418 -114.875398 291 5051ft 195kts
14-Jul-19 16:14 36.151694 -114.936445 291 5051ft 187kts
14-Jul-19 16:15 36.170574 -114.996211 291 5055ft 186kts
14-Jul-19 16:16 36.186295 -115.057230 255 5048ft 188kts
14-Jul-19 16:17 36.158673 -115.115508 226 4092ft 212kts
14-Jul-19 16:18 36.107740 -115.151716 204 2314ft 203kts
14-Jul-19 16:19 36.078688 -115.168429 181 2170ft 0kts
14-Jul-19 16:20 36.078007 -115.167379 88 2169ft 17kts
14-Jul-19 16:21 36.080755 -115.161534 25 2144ft 21kts

Navigation Log

Ident Type
Flight plan parsing failed, navigation log unavailable